sensor_id;sensor_type;location;lat;lon;timestamp;temperature;humidity
9450;DHT22;4763;48.370;10.874;2023-03-01T00:00:23;1.20;99.90
9450;DHT22;4763;48.370;10.874;2023-03-01T00:03:10;1.20;99.90
9450;DHT22;4763;48.370;10.874;2023-03-01T00:05:57;1.30;99.90
9450;DHT22;4763;48.370;10.874;2023-03-01T00:08:44;1.20;99.90
9450;DHT22;4763;48.370;10.874;2023-03-01T00:11:34;1.20;99.90
9450;DHT22;4763;48.370;10.874;2023-03-01T00:14:21;1.20;99.90
9450;DHT22;4763;48.370;10.874;2023-03-01T00:17:09;1.20;99.90
9450;DHT22;4763;48.370;10.874;2023-03-01T00:19:56;1.20;99.90
9450;DHT22;4763;48.370;10.874;2023-03-01T00:22:43;1.20;99.90
9450;DHT22;4763;48.370;10.874;2023-03-01T00:25:30;1.20;99.90
9450;DHT22;4763;48.370;10.874;2023-03-01T00:28:19;1.20;99.90
9450;DHT22;4763;48.370;10.874;2023-03-01T00:31:08;1.20;99.90
9450;DHT22;4763;48.370;10.874;2023-03-01T00:33:56;1.20;99.90
9450;DHT22;4763;48.370;10.874;2023-03-01T00:36:43;1.20;99.90
9450;DHT22;4763;48.370;10.874;2023-03-01T00:39:31;1.20;99.90
9450;DHT22;4763;48.370;10.874;2023-03-01T00:42:19;1.20;99.90
9450;DHT22;4763;48.370;10.874;2023-03-01T00:45:08;1.30;99.90
9450;DHT22;4763;48.370;10.874;2023-03-01T00:47:55;1.30;99.90
9450;DHT22;4763;48.370;10.874;2023-03-01T00:50:42;1.30;99.90
9450;DHT22;4763;48.370;10.874;2023-03-01T00:53:29;1.20;99.90
9450;DHT22;4763;48.370;10.874;2023-03-01T00:56:16;1.20;99.90
9450;DHT22;4763;48.370;10.874;2023-03-01T00:59:03;1.20;99.90
9450;DHT22;4763;48.370;10.874;2023-03-01T01:01:52;1.20;99.90
9450;DHT22;4763;48.370;10.874;2023-03-01T01:04:39;1.20;99.90
9450;DHT22;4763;48.370;10.874;2023-03-01T01:07:26;1.20;99.90
9450;DHT22;4763;48.370;10.874;2023-03-01T01:10:13;1.20;99.90
9450;DHT22;4763;48.370;10.874;2023-03-01T01:13:02;1.20;99.90
9450;DHT22;4763;48.370;10.874;2023-03-01T01:15:49;1.20;99.90
9450;DHT22;4763;48.370;10.874;2023-03-01T01:18:38;1.10;99.90
9450;DHT22;4763;48.370;10.874;2023-03-01T01:21:25;1.20;99.90
9450;DHT22;4763;48.370;10.874;2023-03-01T01:24:13;1.10;99.90
9450;DHT22;4763;48.370;10.874;2023-03-01T01:27:00;1.10;99.90
9450;DHT22;4763;48.370;10.874;2023-03-01T01:29:47;1.10;99.90
9450;DHT22;4763;48.370;10.874;2023-03-01T01:32:34;1.10;99.90
9450;DHT22;4763;48.370;10.874;2023-03-01T01:35:22;1.10;99.90
9450;DHT22;4763;48.370;10.874;2023-03-01T01:38:09;1.00;99.90
9450;DHT22;4763;48.370;10.874;2023-03-01T01:40:56;1.00;99.90
9450;DHT22;4763;48.370;10.874;2023-03-01T01:43:45;1.00;99.90
9450;DHT22;4763;48.370;10.874;2023-03-01T01:46:33;1.00;99.90
9450;DHT22;4763;48.370;10.874;2023-03-01T01:49:27;1.00;99.90
9450;DHT22;4763;48.370;10.874;2023-03-01T01:52:18;0.90;99.90
9450;DHT22;4763;48.370;10.874;2023-03-01T01:55:13;0.90;99.90
9450;DHT22;4763;48.370;10.874;2023-03-01T01:58:03;0.90;99.90
9450;DHT22;4763;48.370;10.874;2023-03-01T02:00:51;0.90;99.90
9450;DHT22;4763;48.370;10.874;2023-03-01T02:03:42;0.90;99.90
9450;DHT22;4763;48.370;10.874;2023-03-01T02:06:31;0.80;99.90
9450;DHT22;4763;48.370;10.874;2023-03-01T02:09:22;0.80;99.90
9450;DHT22;4763;48.370;10.874;2023-03-01T02:12:10;0.80;99.90
9450;DHT22;4763;48.370;10.874;2023-03-01T02:14:57;0.80;99.90
9450;DHT22;4763;48.370;10.874;2023-03-01T02:17:44;0.80;99.90
9450;DHT22;4763;48.370;10.874;2023-03-01T02:20:35;0.80;99.90
9450;DHT22;4763;48.370;10.874;2023-03-01T02:23:24;0.80;99.90
9450;DHT22;4763;48.370;10.874;2023-03-01T02:26:18;0.70;99.90
9450;DHT22;4763;48.370;10.874;2023-03-01T02:29:09;0.80;99.90
9450;DHT22;4763;48.370;10.874;2023-03-01T02:31:59;0.80;99.90
9450;DHT22;4763;48.370;10.874;2023-03-01T02:34:47;0.70;99.90
9450;DHT22;4763;48.370;10.874;2023-03-01T02:37:35;0.80;99.90
9450;DHT22;4763;48.370;10.874;2023-03-01T02:40:23;0.70;99.90
9450;DHT22;4763;48.370;10.874;2023-03-01T02:43:12;0.70;99.90
9450;DHT22;4763;48.370;10.874;2023-03-01T02:46:06;0.60;99.90
9450;DHT22;4763;48.370;10.874;2023-03-01T02:48:55;0.70;99.90
9450;DHT22;4763;48.370;10.874;2023-03-01T02:51:52;0.70;99.90
9450;DHT22;4763;48.370;10.874;2023-03-01T02:54:44;0.60;99.90
9450;DHT22;4763;48.370;10.874;2023-03-01T02:57:35;0.60;99.90
9450;DHT22;4763;48.370;10.874;2023-03-01T03:00:26;0.60;99.90
9450;DHT22;4763;48.370;10.874;2023-03-01T03:03:20;0.60;99.90
9450;DHT22;4763;48.370;10.874;2023-03-01T03:06:09;0.60;99.90
9450;DHT22;4763;48.370;10.874;2023-03-01T03:08:56;0.60;99.90
9450;DHT22;4763;48.370;10.874;2023-03-01T03:11:43;0.60;99.90
9450;DHT22;4763;48.370;10.874;2023-03-01T03:14:30;0.60;99.90
9450;DHT22;4763;48.370;10.874;2023-03-01T03:17:20;0.60;99.90
9450;DHT22;4763;48.370;10.874;2023-03-01T03:20:12;0.60;99.90
9450;DHT22;4763;48.370;10.874;2023-03-01T03:23:05;0.50;99.90
9450;DHT22;4763;48.370;10.874;2023-03-01T03:25:52;0.50;99.90
9450;DHT22;4763;48.370;10.874;2023-03-01T03:28:39;0.50;99.90
9450;DHT22;4763;48.370;10.874;2023-03-01T03:31:26;0.60;99.90
9450;DHT22;4763;48.370;10.874;2023-03-01T03:34:13;0.60;99.90
9450;DHT22;4763;48.370;10.874;2023-03-01T03:37:04;0.60;99.90
9450;DHT22;4763;48.370;10.874;2023-03-01T03:40:12;0.60;99.90
9450;DHT22;4763;48.370;10.874;2023-03-01T03:43:01;0.60;99.90
9450;DHT22;4763;48.370;10.874;2023-03-01T03:45:49;0.60;99.90
9450;DHT22;4763;48.370;10.874;2023-03-01T03:48:38;0.60;99.90
9450;DHT22;4763;48.370;10.874;2023-03-01T03:51:25;0.50;99.90
9450;DHT22;4763;48.370;10.874;2023-03-01T03:54:14;0.50;99.90
9450;DHT22;4763;48.370;10.874;2023-03-01T03:57:01;0.60;99.90
9450;DHT22;4763;48.370;10.874;2023-03-01T03:59:48;0.50;99.90
9450;DHT22;4763;48.370;10.874;2023-03-01T04:02:35;0.50;99.90
9450;DHT22;4763;48.370;10.874;2023-03-01T04:05:22;0.50;99.90
9450;DHT22;4763;48.370;10.874;2023-03-01T04:08:10;0.50;99.90
9450;DHT22;4763;48.370;10.874;2023-03-01T04:11:00;0.50;99.90
9450;DHT22;4763;48.370;10.874;2023-03-01T04:14:09;0.50;99.90
9450;DHT22;4763;48.370;10.874;2023-03-01T04:16:56;0.60;99.90
9450;DHT22;4763;48.370;10.874;2023-03-01T04:19:43;0.60;99.90
9450;DHT22;4763;48.370;10.874;2023-03-01T04:22:34;0.50;99.90
9450;DHT22;4763;48.370;10.874;2023-03-01T04:25:21;0.50;99.90
9450;DHT22;4763;48.370;10.874;2023-03-01T04:28:09;0.40;99.90
9450;DHT22;4763;48.370;10.874;2023-03-01T04:30:58;0.50;99.90
9450;DHT22;4763;48.370;10.874;2023-03-01T04:33:47;0.40;99.90
9450;DHT22;4763;48.370;10.874;2023-03-01T04:36:34;0.50;99.90
9450;DHT22;4763;48.370;10.874;2023-03-01T04:39:22;0.50;99.90
9450;DHT22;4763;48.370;10.874;2023-03-01T04:42:09;0.50;99.90
9450;DHT22;4763;48.370;10.874;2023-03-01T04:44:57;0.50;99.90
9450;DHT22;4763;48.370;10.874;2023-03-01T04:48:00;0.40;99.90
9450;DHT22;4763;48.370;10.874;2023-03-01T04:54:25;0.40;99.90
9450;DHT22;4763;48.370;10.874;2023-03-01T04:57:12;0.40;99.90
9450;DHT22;4763;48.370;10.874;2023-03-01T05:00:03;0.30;99.90
9450;DHT22;4763;48.370;10.874;2023-03-01T05:03:05;0.20;99.90
9450;DHT22;4763;48.370;10.874;2023-03-01T05:06:04;0.20;99.90
9450;DHT22;4763;48.370;10.874;2023-03-01T05:08:51;0.20;99.90
9450;DHT22;4763;48.370;10.874;2023-03-01T05:11:38;0.10;99.90
9450;DHT22;4763;48.370;10.874;2023-03-01T05:14:25;0.00;99.90
9450;DHT22;4763;48.370;10.874;2023-03-01T05:17:15;0.00;99.90
9450;DHT22;4763;48.370;10.874;2023-03-01T05:20:02;-0.10;99.90
9450;DHT22;4763;48.370;10.874;2023-03-01T05:22:56;-0.20;99.90
9450;DHT22;4763;48.370;10.874;2023-03-01T05:25:46;-0.30;99.90
9450;DHT22;4763;48.370;10.874;2023-03-01T05:28:33;-0.30;99.90
9450;DHT22;4763;48.370;10.874;2023-03-01T05:31:20;-0.40;99.90
9450;DHT22;4763;48.370;10.874;2023-03-01T05:34:09;-0.40;99.90
9450;DHT22;4763;48.370;10.874;2023-03-01T05:36:58;-0.40;99.90
9450;DHT22;4763;48.370;10.874;2023-03-01T05:39:45;-0.50;99.90
9450;DHT22;4763;48.370;10.874;2023-03-01T05:42:32;-0.50;99.90
9450;DHT22;4763;48.370;10.874;2023-03-01T05:45:21;-0.60;99.90
9450;DHT22;4763;48.370;10.874;2023-03-01T05:48:09;-0.70;99.90
9450;DHT22;4763;48.370;10.874;2023-03-01T05:50:59;-0.70;99.90
9450;DHT22;4763;48.370;10.874;2023-03-01T05:53:46;-0.70;99.90
9450;DHT22;4763;48.370;10.874;2023-03-01T05:56:34;-0.70;99.90
9450;DHT22;4763;48.370;10.874;2023-03-01T05:59:21;-0.70;99.90
9450;DHT22;4763;48.370;10.874;2023-03-01T06:08:59;-0.80;99.90
9450;DHT22;4763;48.370;10.874;2023-03-01T08:00:18;0.60;99.90
9450;DHT22;4763;48.370;10.874;2023-03-01T08:03:07;0.60;99.90
9450;DHT22;4763;48.370;10.874;2023-03-01T08:05:57;0.60;99.90
9450;DHT22;4763;48.370;10.874;2023-03-01T08:08:51;0.70;99.90
9450;DHT22;4763;48.370;10.874;2023-03-01T08:11:41;0.70;99.90
9450;DHT22;4763;48.370;10.874;2023-03-01T08:14:29;0.90;99.90
9450;DHT22;4763;48.370;10.874;2023-03-01T08:17:18;0.90;99.90
9450;DHT22;4763;48.370;10.874;2023-03-01T08:20:07;0.90;99.90
9450;DHT22;4763;48.370;10.874;2023-03-01T08:22:58;0.90;99.90
9450;DHT22;4763;48.370;10.874;2023-03-01T08:25:54;1.00;99.90
9450;DHT22;4763;48.370;10.874;2023-03-01T08:28:42;1.20;99.90
9450;DHT22;4763;48.370;10.874;2023-03-01T08:34:42;1.30;99.90
9450;DHT22;4763;48.370;10.874;2023-03-01T08:37:41;1.20;99.90
9450;DHT22;4763;48.370;10.874;2023-03-01T08:40:28;1.30;99.90
9450;DHT22;4763;48.370;10.874;2023-03-01T08:43:15;1.30;99.90
9450;DHT22;4763;48.370;10.874;2023-03-01T08:46:03;1.50;99.90
9450;DHT22;4763;48.370;10.874;2023-03-01T08:48:50;1.60;99.90
9450;DHT22;4763;48.370;10.874;2023-03-01T09:05:32;1.80;99.90
9450;DHT22;4763;48.370;10.874;2023-03-01T09:08:24;1.90;99.90
9450;DHT22;4763;48.370;10.874;2023-03-01T09:11:19;2.00;99.90
9450;DHT22;4763;48.370;10.874;2023-03-01T09:14:10;2.00;99.90
9450;DHT22;4763;48.370;10.874;2023-03-01T09:17:04;2.10;99.90
9450;DHT22;4763;48.370;10.874;2023-03-01T09:29:56;2.30;99.90
9450;DHT22;4763;48.370;10.874;2023-03-01T09:32:50;2.40;99.90
9450;DHT22;4763;48.370;10.874;2023-03-01T09:35:40;2.30;99.90
9450;DHT22;4763;48.370;10.874;2023-03-01T09:38:37;2.40;99.90
9450;DHT22;4763;48.370;10.874;2023-03-01T09:41:42;2.40;99.90
9450;DHT22;4763;48.370;10.874;2023-03-01T09:44:42;2.50;99.90
9450;DHT22;4763;48.370;10.874;2023-03-01T09:47:40;2.60;99.90
9450;DHT22;4763;48.370;10.874;2023-03-01T09:54:00;2.90;99.90
9450;DHT22;4763;48.370;10.874;2023-03-01T10:01:15;3.30;99.90
9450;DHT22;4763;48.370;10.874;2023-03-01T10:04:45;3.40;99.90
9450;DHT22;4763;48.370;10.874;2023-03-01T10:07:42;3.60;99.90
9450;DHT22;4763;48.370;10.874;2023-03-01T10:10:34;3.80;99.90
9450;DHT22;4763;48.370;10.874;2023-03-01T10:13:26;3.90;99.90
9450;DHT22;4763;48.370;10.874;2023-03-01T10:16:17;4.10;99.90
9450;DHT22;4763;48.370;10.874;2023-03-01T10:19:12;4.10;99.90
9450;DHT22;4763;48.370;10.874;2023-03-01T10:22:05;4.10;99.90
9450;DHT22;4763;48.370;10.874;2023-03-01T10:24:58;4.10;99.90
9450;DHT22;4763;48.370;10.874;2023-03-01T10:27:53;4.10;99.90
9450;DHT22;4763;48.370;10.874;2023-03-01T10:30:41;4.30;99.90
9450;DHT22;4763;48.370;10.874;2023-03-01T10:33:31;4.70;99.90
9450;DHT22;4763;48.370;10.874;2023-03-01T10:36:19;4.80;99.90
9450;DHT22;4763;48.370;10.874;2023-03-01T10:39:13;4.80;99.90
9450;DHT22;4763;48.370;10.874;2023-03-01T10:42:02;4.90;99.90
9450;DHT22;4763;48.370;10.874;2023-03-01T10:44:49;4.90;99.90
9450;DHT22;4763;48.370;10.874;2023-03-01T10:47:36;5.10;99.90
9450;DHT22;4763;48.370;10.874;2023-03-01T10:50:23;5.30;99.90
9450;DHT22;4763;48.370;10.874;2023-03-01T10:53:23;5.40;99.90
9450;DHT22;4763;48.370;10.874;2023-03-01T10:56:14;5.40;99.90
9450;DHT22;4763;48.370;10.874;2023-03-01T10:59:04;5.50;99.90
9450;DHT22;4763;48.370;10.874;2023-03-01T11:02:03;5.70;99.90
9450;DHT22;4763;48.370;10.874;2023-03-01T11:04:59;5.70;99.90
9450;DHT22;4763;48.370;10.874;2023-03-01T11:07:51;5.70;99.90
9450;DHT22;4763;48.370;10.874;2023-03-01T11:10:38;6.00;99.90
9450;DHT22;4763;48.370;10.874;2023-03-01T11:13:27;5.80;99.90
9450;DHT22;4763;48.370;10.874;2023-03-01T11:16:14;5.70;99.90
9450;DHT22;4763;48.370;10.874;2023-03-01T11:19:15;5.90;99.90
9450;DHT22;4763;48.370;10.874;2023-03-01T11:22:05;6.20;99.90
9450;DHT22;4763;48.370;10.874;2023-03-01T11:24:56;6.50;99.90
9450;DHT22;4763;48.370;10.874;2023-03-01T11:27:45;6.50;99.90
9450;DHT22;4763;48.370;10.874;2023-03-01T11:30:38;6.50;99.90
9450;DHT22;4763;48.370;10.874;2023-03-01T11:33:35;6.80;99.90
9450;DHT22;4763;48.370;10.874;2023-03-01T11:36:30;7.00;99.90
9450;DHT22;4763;48.370;10.874;2023-03-01T11:39:26;6.80;99.90
9450;DHT22;4763;48.370;10.874;2023-03-01T11:42:18;7.10;99.90
9450;DHT22;4763;48.370;10.874;2023-03-01T11:45:10;7.30;99.90
9450;DHT22;4763;48.370;10.874;2023-03-01T11:48:12;7.30;99.90
9450;DHT22;4763;48.370;10.874;2023-03-01T11:51:09;7.50;99.90
9450;DHT22;4763;48.370;10.874;2023-03-01T11:54:06;7.40;99.90
9450;DHT22;4763;48.370;10.874;2023-03-01T11:57:01;7.50;99.90
9450;DHT22;4763;48.370;10.874;2023-03-01T11:59:59;7.50;99.90
9450;DHT22;4763;48.370;10.874;2023-03-01T12:06:33;7.40;99.90
9450;DHT22;4763;48.370;10.874;2023-03-01T12:09:47;7.60;99.90
9450;DHT22;4763;48.370;10.874;2023-03-01T12:12:45;7.70;99.90
9450;DHT22;4763;48.370;10.874;2023-03-01T12:16:15;8.00;99.90
9450;DHT22;4763;48.370;10.874;2023-03-01T12:19:15;8.50;99.90
9450;DHT22;4763;48.370;10.874;2023-03-01T12:22:21;8.40;99.90
9450;DHT22;4763;48.370;10.874;2023-03-01T12:25:31;8.60;99.90
9450;DHT22;4763;48.370;10.874;2023-03-01T12:28:41;8.60;99.90
9450;DHT22;4763;48.370;10.874;2023-03-01T12:35:03;8.40;99.90
9450;DHT22;4763;48.370;10.874;2023-03-01T12:37:58;8.40;99.90
9450;DHT22;4763;48.370;10.874;2023-03-01T12:41:01;8.70;99.90
9450;DHT22;4763;48.370;10.874;2023-03-01T12:43:58;8.80;99.90
9450;DHT22;4763;48.370;10.874;2023-03-01T12:46:57;9.20;99.90
9450;DHT22;4763;48.370;10.874;2023-03-01T12:49:49;9.30;99.90
9450;DHT22;4763;48.370;10.874;2023-03-01T12:52:40;9.50;99.90
9450;DHT22;4763;48.370;10.874;2023-03-01T12:55:34;9.50;99.90
9450;DHT22;4763;48.370;10.874;2023-03-01T12:58:27;9.40;99.90
9450;DHT22;4763;48.370;10.874;2023-03-01T13:01:22;9.40;99.90
9450;DHT22;4763;48.370;10.874;2023-03-01T13:04:26;9.60;99.90
9450;DHT22;4763;48.370;10.874;2023-03-01T13:07:23;9.70;99.90
9450;DHT22;4763;48.370;10.874;2023-03-01T13:10:21;9.90;99.90
9450;DHT22;4763;48.370;10.874;2023-03-01T13:13:19;9.70;99.90
9450;DHT22;4763;48.370;10.874;2023-03-01T13:16:21;9.90;99.90
9450;DHT22;4763;48.370;10.874;2023-03-01T13:19:13;9.70;99.90
9450;DHT22;4763;48.370;10.874;2023-03-01T13:22:29;10.20;99.90
9450;DHT22;4763;48.370;10.874;2023-03-01T13:25:19;10.00;99.90
9450;DHT22;4763;48.370;10.874;2023-03-01T13:28:40;10.10;99.90
9450;DHT22;4763;48.370;10.874;2023-03-01T13:31:58;10.10;99.90
9450;DHT22;4763;48.370;10.874;2023-03-01T13:34:57;9.90;99.90
9450;DHT22;4763;48.370;10.874;2023-03-01T13:37:45;9.90;99.90
9450;DHT22;4763;48.370;10.874;2023-03-01T13:40:58;10.00;99.90
9450;DHT22;4763;48.370;10.874;2023-03-01T13:43:48;9.90;99.90
9450;DHT22;4763;48.370;10.874;2023-03-01T13:46:35;10.00;99.90
9450;DHT22;4763;48.370;10.874;2023-03-01T13:49:26;10.00;99.90
9450;DHT22;4763;48.370;10.874;2023-03-01T13:52:32;10.00;99.90
9450;DHT22;4763;48.370;10.874;2023-03-01T13:55:23;10.10;99.90
9450;DHT22;4763;48.370;10.874;2023-03-01T13:58:19;10.00;99.90
9450;DHT22;4763;48.370;10.874;2023-03-01T14:01:22;10.20;99.90
9450;DHT22;4763;48.370;10.874;2023-03-01T14:04:21;10.30;99.90
9450;DHT22;4763;48.370;10.874;2023-03-01T14:07:10;10.20;99.90
9450;DHT22;4763;48.370;10.874;2023-03-01T14:10:01;10.20;99.90
9450;DHT22;4763;48.370;10.874;2023-03-01T14:12:53;9.90;99.90
9450;DHT22;4763;48.370;10.874;2023-03-01T14:15:47;10.20;99.90
9450;DHT22;4763;48.370;10.874;2023-03-01T14:18:43;10.20;99.90
9450;DHT22;4763;48.370;10.874;2023-03-01T14:21:32;10.20;99.90
9450;DHT22;4763;48.370;10.874;2023-03-01T14:24:22;10.30;99.90
9450;DHT22;4763;48.370;10.874;2023-03-01T14:27:11;10.40;99.90
9450;DHT22;4763;48.370;10.874;2023-03-01T14:30:00;10.50;99.90
9450;DHT22;4763;48.370;10.874;2023-03-01T14:32:53;10.50;99.90
9450;DHT22;4763;48.370;10.874;2023-03-01T14:35:41;10.50;99.90
9450;DHT22;4763;48.370;10.874;2023-03-01T14:38:32;10.30;99.90
9450;DHT22;4763;48.370;10.874;2023-03-01T14:41:23;10.30;99.90
9450;DHT22;4763;48.370;10.874;2023-03-01T14:44:15;10.30;99.90
9450;DHT22;4763;48.370;10.874;2023-03-01T14:47:04;10.40;99.90
9450;DHT22;4763;48.370;10.874;2023-03-01T14:49:56;10.20;99.90
9450;DHT22;4763;48.370;10.874;2023-03-01T14:52:47;10.00;99.90
9450;DHT22;4763;48.370;10.874;2023-03-01T14:55:37;10.00;99.90
9450;DHT22;4763;48.370;10.874;2023-03-01T14:58:26;10.10;99.90
9450;DHT22;4763;48.370;10.874;2023-03-01T15:01:16;10.00;99.90
9450;DHT22;4763;48.370;10.874;2023-03-01T15:04:03;9.90;99.90
9450;DHT22;4763;48.370;10.874;2023-03-01T15:06:52;10.10;99.90
9450;DHT22;4763;48.370;10.874;2023-03-01T15:09:41;10.20;99.90
9450;DHT22;4763;48.370;10.874;2023-03-01T15:12:37;10.40;99.90
9450;DHT22;4763;48.370;10.874;2023-03-01T15:15:34;10.60;99.90
9450;DHT22;4763;48.370;10.874;2023-03-01T15:18:25;10.60;99.90
9450;DHT22;4763;48.370;10.874;2023-03-01T15:21:17;10.50;99.90
9450;DHT22;4763;48.370;10.874;2023-03-01T15:24:07;10.30;99.90
9450;DHT22;4763;48.370;10.874;2023-03-01T15:27:16;10.20;99.90
9450;DHT22;4763;48.370;10.874;2023-03-01T15:30:05;10.30;99.90
9450;DHT22;4763;48.370;10.874;2023-03-01T15:33:17;10.70;99.90
9450;DHT22;4763;48.370;10.874;2023-03-01T15:36:30;10.50;99.90
9450;DHT22;4763;48.370;10.874;2023-03-01T15:39:35;10.60;99.90
9450;DHT22;4763;48.370;10.874;2023-03-01T15:42:37;10.70;99.90
9450;DHT22;4763;48.370;10.874;2023-03-01T15:45:26;9.50;99.90
9450;DHT22;4763;48.370;10.874;2023-03-01T15:48:17;8.90;99.90
9450;DHT22;4763;48.370;10.874;2023-03-01T15:51:12;8.40;99.90
9450;DHT22;4763;48.370;10.874;2023-03-01T15:54:03;8.10;99.90
9450;DHT22;4763;48.370;10.874;2023-03-01T15:56:51;8.10;99.90
9450;DHT22;4763;48.370;10.874;2023-03-01T15:59:40;8.00;99.90
9450;DHT22;4763;48.370;10.874;2023-03-01T16:02:28;7.80;99.90
9450;DHT22;4763;48.370;10.874;2023-03-01T16:05:19;7.70;99.90
9450;DHT22;4763;48.370;10.874;2023-03-01T16:08:06;7.60;99.90
9450;DHT22;4763;48.370;10.874;2023-03-01T16:10:54;7.60;99.90
9450;DHT22;4763;48.370;10.874;2023-03-01T16:13:41;7.50;99.90
9450;DHT22;4763;48.370;10.874;2023-03-01T16:16:29;7.50;99.90
9450;DHT22;4763;48.370;10.874;2023-03-01T16:19:16;7.40;99.90
9450;DHT22;4763;48.370;10.874;2023-03-01T16:22:03;7.40;99.90
9450;DHT22;4763;48.370;10.874;2023-03-01T16:24:50;7.30;99.90
9450;DHT22;4763;48.370;10.874;2023-03-01T16:27:38;7.20;99.90
9450;DHT22;4763;48.370;10.874;2023-03-01T16:30:25;7.10;99.90
9450;DHT22;4763;48.370;10.874;2023-03-01T16:33:13;7.00;99.90
9450;DHT22;4763;48.370;10.874;2023-03-01T16:36:01;7.00;99.90
9450;DHT22;4763;48.370;10.874;2023-03-01T16:38:52;7.00;99.90
9450;DHT22;4763;48.370;10.874;2023-03-01T16:41:39;6.90;99.90
9450;DHT22;4763;48.370;10.874;2023-03-01T16:44:26;6.80;99.90
9450;DHT22;4763;48.370;10.874;2023-03-01T16:47:14;6.70;99.90
9450;DHT22;4763;48.370;10.874;2023-03-01T16:50:03;6.70;99.90
9450;DHT22;4763;48.370;10.874;2023-03-01T16:52:51;6.60;99.90
9450;DHT22;4763;48.370;10.874;2023-03-01T16:55:38;6.50;99.90
9450;DHT22;4763;48.370;10.874;2023-03-01T16:58:31;6.40;99.90
9450;DHT22;4763;48.370;10.874;2023-03-01T17:01:19;6.50;99.90
9450;DHT22;4763;48.370;10.874;2023-03-01T17:04:10;6.40;99.90
9450;DHT22;4763;48.370;10.874;2023-03-01T17:06:59;6.40;99.90
9450;DHT22;4763;48.370;10.874;2023-03-01T17:09:46;6.40;99.90
9450;DHT22;4763;48.370;10.874;2023-03-01T17:12:34;6.40;99.90
9450;DHT22;4763;48.370;10.874;2023-03-01T17:15:21;6.40;99.90
9450;DHT22;4763;48.370;10.874;2023-03-01T17:18:08;6.40;99.90
9450;DHT22;4763;48.370;10.874;2023-03-01T17:20:58;6.40;99.90
9450;DHT22;4763;48.370;10.874;2023-03-01T17:23:47;6.30;99.90
9450;DHT22;4763;48.370;10.874;2023-03-01T17:26:35;6.40;99.90
9450;DHT22;4763;48.370;10.874;2023-03-01T17:29:22;6.30;99.90
9450;DHT22;4763;48.370;10.874;2023-03-01T17:32:09;6.20;99.90
9450;DHT22;4763;48.370;10.874;2023-03-01T17:34:56;6.10;99.90
9450;DHT22;4763;48.370;10.874;2023-03-01T17:37:43;6.00;99.90
9450;DHT22;4763;48.370;10.874;2023-03-01T17:40:32;6.00;99.90
9450;DHT22;4763;48.370;10.874;2023-03-01T17:43:20;5.90;99.90
9450;DHT22;4763;48.370;10.874;2023-03-01T17:46:07;5.90;99.90
9450;DHT22;4763;48.370;10.874;2023-03-01T17:48:54;5.90;99.90
9450;DHT22;4763;48.370;10.874;2023-03-01T17:51:42;5.90;99.90
9450;DHT22;4763;48.370;10.874;2023-03-01T17:54:30;5.80;99.90
9450;DHT22;4763;48.370;10.874;2023-03-01T17:57:19;5.90;99.90
9450;DHT22;4763;48.370;10.874;2023-03-01T18:00:08;5.70;99.90
9450;DHT22;4763;48.370;10.874;2023-03-01T18:02:58;5.70;99.90
9450;DHT22;4763;48.370;10.874;2023-03-01T18:05:46;5.60;99.90
9450;DHT22;4763;48.370;10.874;2023-03-01T18:08:38;5.50;99.90
9450;DHT22;4763;48.370;10.874;2023-03-01T18:11:37;5.50;99.90
9450;DHT22;4763;48.370;10.874;2023-03-01T18:14:41;5.40;99.90
9450;DHT22;4763;48.370;10.874;2023-03-01T18:17:42;5.30;99.90
9450;DHT22;4763;48.370;10.874;2023-03-01T18:20:31;5.30;99.90
9450;DHT22;4763;48.370;10.874;2023-03-01T18:23:19;5.20;99.90
9450;DHT22;4763;48.370;10.874;2023-03-01T18:26:09;5.00;99.90
9450;DHT22;4763;48.370;10.874;2023-03-01T18:28:57;4.90;99.90
9450;DHT22;4763;48.370;10.874;2023-03-01T18:31:47;4.80;99.90
9450;DHT22;4763;48.370;10.874;2023-03-01T18:34:34;4.80;99.90
9450;DHT22;4763;48.370;10.874;2023-03-01T18:37:21;4.70;99.90
9450;DHT22;4763;48.370;10.874;2023-03-01T18:40:09;4.50;99.90
9450;DHT22;4763;48.370;10.874;2023-03-01T18:42:57;4.50;99.90
9450;DHT22;4763;48.370;10.874;2023-03-01T18:45:44;4.40;99.90
9450;DHT22;4763;48.370;10.874;2023-03-01T18:48:32;4.30;99.90
9450;DHT22;4763;48.370;10.874;2023-03-01T18:51:22;4.20;99.90
9450;DHT22;4763;48.370;10.874;2023-03-01T18:54:10;4.10;99.90
9450;DHT22;4763;48.370;10.874;2023-03-01T18:56:58;4.10;99.90
9450;DHT22;4763;48.370;10.874;2023-03-01T18:59:45;4.00;99.90
9450;DHT22;4763;48.370;10.874;2023-03-01T19:02:32;3.90;99.90
9450;DHT22;4763;48.370;10.874;2023-03-01T19:05:21;3.90;99.90
9450;DHT22;4763;48.370;10.874;2023-03-01T19:08:08;3.80;99.90
9450;DHT22;4763;48.370;10.874;2023-03-01T19:10:55;3.80;99.90
9450;DHT22;4763;48.370;10.874;2023-03-01T19:13:43;3.80;99.90
9450;DHT22;4763;48.370;10.874;2023-03-01T19:16:32;3.70;99.90
9450;DHT22;4763;48.370;10.874;2023-03-01T19:19:20;3.60;99.90
9450;DHT22;4763;48.370;10.874;2023-03-01T19:22:08;3.50;99.90
9450;DHT22;4763;48.370;10.874;2023-03-01T19:24:55;3.50;99.90
9450;DHT22;4763;48.370;10.874;2023-03-01T19:27:43;3.40;99.90
9450;DHT22;4763;48.370;10.874;2023-03-01T19:30:30;3.40;99.90
9450;DHT22;4763;48.370;10.874;2023-03-01T19:33:17;3.40;99.90
9450;DHT22;4763;48.370;10.874;2023-03-01T19:36:04;3.30;99.90
9450;DHT22;4763;48.370;10.874;2023-03-01T19:38:54;3.30;99.90
9450;DHT22;4763;48.370;10.874;2023-03-01T19:41:41;3.30;99.90
9450;DHT22;4763;48.370;10.874;2023-03-01T19:44:28;3.20;99.90
9450;DHT22;4763;48.370;10.874;2023-03-01T19:47:15;3.20;99.90
9450;DHT22;4763;48.370;10.874;2023-03-01T19:50:04;3.10;99.90
9450;DHT22;4763;48.370;10.874;2023-03-01T19:52:51;3.10;99.90
9450;DHT22;4763;48.370;10.874;2023-03-01T19:55:40;3.10;99.90
9450;DHT22;4763;48.370;10.874;2023-03-01T19:58:28;3.10;99.90
9450;DHT22;4763;48.370;10.874;2023-03-01T20:01:17;3.00;99.90
9450;DHT22;4763;48.370;10.874;2023-03-01T20:04:05;2.90;99.90
9450;DHT22;4763;48.370;10.874;2023-03-01T20:06:53;2.90;99.90
9450;DHT22;4763;48.370;10.874;2023-03-01T20:09:40;2.90;99.90
9450;DHT22;4763;48.370;10.874;2023-03-01T20:12:29;2.80;99.90
9450;DHT22;4763;48.370;10.874;2023-03-01T20:15:16;2.90;99.90
9450;DHT22;4763;48.370;10.874;2023-03-01T20:18:03;2.90;99.90
9450;DHT22;4763;48.370;10.874;2023-03-01T20:20:51;2.80;99.90
9450;DHT22;4763;48.370;10.874;2023-03-01T20:23:38;2.70;99.90
9450;DHT22;4763;48.370;10.874;2023-03-01T20:26:25;2.70;99.90
9450;DHT22;4763;48.370;10.874;2023-03-01T20:29:15;2.60;99.90
9450;DHT22;4763;48.370;10.874;2023-03-01T20:32:02;2.60;99.90
9450;DHT22;4763;48.370;10.874;2023-03-01T20:34:49;2.60;99.90
9450;DHT22;4763;48.370;10.874;2023-03-01T20:37:37;2.50;99.90
9450;DHT22;4763;48.370;10.874;2023-03-01T20:40:24;2.50;99.90
9450;DHT22;4763;48.370;10.874;2023-03-01T20:43:13;2.40;99.90
9450;DHT22;4763;48.370;10.874;2023-03-01T20:46:03;2.40;99.90
9450;DHT22;4763;48.370;10.874;2023-03-01T20:48:50;2.40;99.90
9450;DHT22;4763;48.370;10.874;2023-03-01T20:51:37;2.40;99.90
9450;DHT22;4763;48.370;10.874;2023-03-01T20:54:25;2.40;99.90
9450;DHT22;4763;48.370;10.874;2023-03-01T20:57:12;2.40;99.90
9450;DHT22;4763;48.370;10.874;2023-03-01T20:59:59;2.30;99.90
9450;DHT22;4763;48.370;10.874;2023-03-01T21:02:48;2.20;99.90
9450;DHT22;4763;48.370;10.874;2023-03-01T21:05:35;2.20;99.90
9450;DHT22;4763;48.370;10.874;2023-03-01T21:08:22;2.30;99.90
9450;DHT22;4763;48.370;10.874;2023-03-01T21:11:09;2.20;99.90
9450;DHT22;4763;48.370;10.874;2023-03-01T21:13:57;2.20;99.90